Airfield :
LOGIN :

Register | Disclaimer

   EN    FR    IT 

 










Legend :    VFR   Marginal VFR   IFR   Intensive IFR   Very Intensive IFR
Visi :
Ceiling :
>= 8 km
>= 3000ft
5 to 8 km
1000 to 3000 ft
1500m to 5 km
500 to 1000 ft
800 to 1500m
200 to 500 ft
< 800m
< 200 ft
Symbols :   Thunderstorms  Fog  Heavy snow  Heavy precipitations  Wind > 20 kt
SIGMETs :     Misc.  Thunderstorms  Icing  Turbulence  Mountain Waves  Volcanic Ashes






- Airport Elevation : 1260 ft
- IATA code : LDE


LFBT - Tarbes / Ossun

CURRENT METAR :
  • 220500Z AUTO 17004KT CAVOK 11/11 Q1014 NOSIG

EXPIRED METARs :
  • 220430Z AUTO 15005KT CAVOK 11/11 Q1014 NOSIG
  • 220400Z AUTO 16004KT CAVOK 11/11 Q1014 NOSIG
  • 220330Z AUTO 17004KT CAVOK 11/11 Q1014 NOSIG
  • 220300Z AUTO 17004KT CAVOK 11/11 Q1014 NOSIG
  • 220230Z AUTO 17004KT CAVOK 12/11 Q1014 NOSIG

TAF TAF LFBT
Valid from the 22 at 00:00 until the 23 at 00:00 UTC


212300Z 2200/2224 VRB04KT 9999 BKN020
BECMG 2200/2202 CAVOK
TEMPO 2213/2219 SHRA BKN030TCU
PROB40
TEMPO 2214/2219 VRB15G30KT 3000 TSRA BKN020CB
BECMG 2221/2223 BKN020



MET'MAP, your aeronautical weather chart ! - Copyright ORBIFLY December 2007 - Disclaimer

ORBIFLY MET'MAP TEAM :

Programming & Development : Alexandra Zaïnal
Concept & original design : Baudouin d'Aumeries
Assistance for programming : Marc-Olivier Méhu
Technical & hardware support : Manuel Goepfert

Contact : metmap@orbifly.com




SOURCES & CREDITS :

   NOAA